createdAt,value
2022-08-05T00:07:58.729Z,68.09
2022-08-05T00:17:41.071Z,68.52
2022-08-05T00:27:43.506Z,67.37
2022-08-05T00:37:52.645Z,67.57
2022-08-05T00:47:57.812Z,69.13
2022-08-05T00:58:07.727Z,69.91
2022-08-05T01:08:41.080Z,70.00
2022-08-05T01:18:40.849Z,69.96
2022-08-05T01:29:05.175Z,71.17
2022-08-05T01:39:07.462Z,68.19
2022-08-05T01:49:22.849Z,69.29
2022-08-05T01:59:28.380Z,68.49
2022-08-05T02:09:32.728Z,69.30
2022-08-05T02:19:47.272Z,68.13
2022-08-05T02:29:59.623Z,67.57
2022-08-05T02:40:03.424Z,67.39
2022-08-05T02:50:08.080Z,68.12
2022-08-05T03:00:14.888Z,66.23
2022-08-05T03:10:24.379Z,66.79
2022-08-05T03:20:27.011Z,69.58
2022-08-05T03:30:34.087Z,71.75
2022-08-05T03:40:40.343Z,73.60
2022-08-05T03:50:59.024Z,74.56
2022-08-05T04:01:11.136Z,73.54
2022-08-05T04:11:15.287Z,73.06
2022-08-05T04:22:09.623Z,72.86
2022-08-05T04:31:39.731Z,76.73
2022-08-05T04:41:41.733Z,75.21
2022-08-05T04:51:44.308Z,74.04
2022-08-05T05:02:08.338Z,76.51
2022-08-05T05:12:08.266Z,76.80
2022-08-05T05:22:24.551Z,77.81
2022-08-05T05:32:28.405Z,76.50
2022-08-05T05:42:31.366Z,77.09
2022-08-05T05:52:37.991Z,77.20
2022-08-05T06:02:42.820Z,78.32
2022-08-05T06:12:44.707Z,77.66
2022-08-05T06:22:47.177Z,74.59
2022-08-05T06:32:50.808Z,75.42
2022-08-05T06:42:52.960Z,76.12
2022-08-05T06:53:03.936Z,75.27
2022-08-05T07:03:13.701Z,75.54
2022-08-05T07:13:57.989Z,73.90
2022-08-05T07:24:01.324Z,75.49
2022-08-05T07:34:03.481Z,73.31
2022-08-05T07:44:18.452Z,74.91
2022-08-05T07:54:30.821Z,76.19
2022-08-05T08:04:37.667Z,73.49
2022-08-05T08:14:40.893Z,74.05
2022-08-05T08:24:51.111Z,73.65
2022-08-05T08:34:54.224Z,72.23
2022-08-05T08:45:25.336Z,73.69
2022-08-05T08:55:32.129Z,76.69
2022-08-05T09:06:07.437Z,76.91
2022-08-05T09:16:14.646Z,79.35
2022-08-05T09:26:20.844Z,78.38
2022-08-05T09:36:27.883Z,77.81
2022-08-05T09:46:35.525Z,77.18
2022-08-05T09:56:40.190Z,77.17
2022-08-05T10:06:59.361Z,76.51
2022-08-05T10:17:39.791Z,75.85
2022-08-05T10:28:13.435Z,75.35
2022-08-05T10:38:02.764Z,76.61
2022-08-05T10:48:31.589Z,76.66
2022-08-05T10:58:48.589Z,73.62
2022-08-05T11:09:13.242Z,73.06
2022-08-05T11:20:10.472Z,72.15
2022-08-05T11:30:00.292Z,69.69
2022-08-05T11:40:03.878Z,69.03
2022-08-05T11:50:07.094Z,68.07
2022-08-05T12:00:27.569Z,66.90
2022-08-05T12:10:42.997Z,63.85
2022-08-05T12:20:48.167Z,62.85
2022-08-05T12:30:51.473Z,62.87
2022-08-05T12:40:56.219Z,60.89
2022-08-05T12:52:10.841Z,59.26
2022-08-05T13:02:00.941Z,57.02
2022-08-05T13:12:07.907Z,55.35
2022-08-05T13:22:14.989Z,52.97
2022-08-05T13:32:35.108Z,49.89
2022-08-05T13:42:41.610Z,51.16
2022-08-05T13:52:43.363Z,52.25
2022-08-05T14:02:45.828Z,51.80
2022-08-05T14:12:49.273Z,51.08
2022-08-05T14:23:00.241Z,51.49
2022-08-05T14:33:02.095Z,53.48
2022-08-05T14:43:04.911Z,50.48
2022-08-05T14:53:13.229Z,50.42
2022-08-05T15:03:15.455Z,51.16
2022-08-05T15:13:17.377Z,51.12
2022-08-05T15:23:19.800Z,51.02
2022-08-05T15:34:19.520Z,49.95
2022-08-05T15:43:45.687Z,48.99
2022-08-05T15:53:51.847Z,46.35
2022-08-05T16:03:53.645Z,45.79
2022-08-05T16:13:55.301Z,45.95
2022-08-05T16:24:01.606Z,44.59
2022-08-05T16:34:05.698Z,45.67
2022-08-05T16:44:14.044Z,45.15
2022-08-05T16:54:22.491Z,45.43
2022-08-05T17:04:29.206Z,46.41
2022-08-05T17:14:37.362Z,47.37
2022-08-05T17:24:45.310Z,47.64
2022-08-05T17:34:49.687Z,47.14
2022-08-05T17:44:51.678Z,46.72
2022-08-05T17:54:53.528Z,45.80
2022-08-05T18:04:55.505Z,43.33
2022-08-05T18:14:57.269Z,43.12
2022-08-05T18:25:00.543Z,41.03
2022-08-05T18:35:03.503Z,40.64
2022-08-05T18:45:07.901Z,39.51
2022-08-05T18:55:11.917Z,39.63
2022-08-05T19:06:05.840Z,40.13
2022-08-05T19:15:59.842Z,40.59
2022-08-05T19:26:01.775Z,40.38
2022-08-05T19:36:06.397Z,41.05
2022-08-05T19:46:16.878Z,41.95
2022-08-05T19:56:32.631Z,43.37
2022-08-05T20:06:45.993Z,43.78
2022-08-05T20:16:48.613Z,44.15
2022-08-05T20:26:50.452Z,44.19
2022-08-05T20:36:52.231Z,45.10
2022-08-05T20:46:54.533Z,46.80
2022-08-05T20:56:57.657Z,46.01
2022-08-05T21:07:00.231Z,45.81
2022-08-05T21:17:05.143Z,47.27
2022-08-05T21:27:07.689Z,47.16
2022-08-05T21:37:09.700Z,47.88
2022-08-05T21:47:17.315Z,48.45
2022-08-05T21:57:33.722Z,49.28
2022-08-05T22:07:40.436Z,49.78
2022-08-05T22:18:00.141Z,50.54
2022-08-05T22:28:08.390Z,50.28
2022-08-05T22:38:13.538Z,51.08
2022-08-05T22:48:16.977Z,51.04
2022-08-05T22:58:28.569Z,51.68
2022-08-05T23:08:30.744Z,51.77
2022-08-05T23:18:32.484Z,52.17
2022-08-05T23:28:34.187Z,52.10
2022-08-05T23:38:36.122Z,52.38
2022-08-05T23:48:37.857Z,52.21
2022-08-05T23:58:39.465Z,52.50
